sensor_id;sensor_type;location;lat;lon;timestamp;P1;durP1;ratioP1;P2;durP2;ratioP2
14169;SDS011;63889;50.596;8.690;2023-10-09T00:01:38;1.50;;;1.02;;
14169;SDS011;63889;50.596;8.690;2023-10-09T00:04:11;3.15;;;1.10;;
14169;SDS011;63889;50.596;8.690;2023-10-09T00:06:38;4.35;;;1.58;;
14169;SDS011;63889;50.596;8.690;2023-10-09T00:09:06;3.40;;;1.65;;
14169;SDS011;63889;50.596;8.690;2023-10-09T00:11:44;2.75;;;1.20;;
14169;SDS011;63889;50.596;8.690;2023-10-09T00:14:10;2.72;;;1.20;;
14169;SDS011;63889;50.596;8.690;2023-10-09T00:16:36;1.92;;;1.00;;
14169;SDS011;63889;50.596;8.690;2023-10-09T00:21:44;6.90;;;1.15;;
14169;SDS011;63889;50.596;8.690;2023-10-09T00:24:14;3.40;;;1.20;;
14169;SDS011;63889;50.596;8.690;2023-10-09T00:26:46;2.17;;;1.35;;
14169;SDS011;63889;50.596;8.690;2023-10-09T00:29:13;1.23;;;1.10;;
14169;SDS011;63889;50.596;8.690;2023-10-09T00:31:57;2.10;;;1.13;;
14169;SDS011;63889;50.596;8.690;2023-10-09T00:34:30;2.95;;;1.30;;
14169;SDS011;63889;50.596;8.690;2023-10-09T00:37:04;4.20;;;1.90;;
14169;SDS011;63889;50.596;8.690;2023-10-09T00:39:34;5.07;;;1.40;;
14169;SDS011;63889;50.596;8.690;2023-10-09T00:42:08;2.30;;;1.10;;
14169;SDS011;63889;50.596;8.690;2023-10-09T00:44:37;1.85;;;1.25;;
14169;SDS011;63889;50.596;8.690;2023-10-09T00:47:13;4.28;;;1.40;;
14169;SDS011;63889;50.596;8.690;2023-10-09T00:49:57;3.45;;;1.30;;
14169;SDS011;63889;50.596;8.690;2023-10-09T00:52:32;5.97;;;1.75;;
14169;SDS011;63889;50.596;8.690;2023-10-09T00:55:08;6.10;;;1.50;;
14169;SDS011;63889;50.596;8.690;2023-10-09T00:57:39;4.13;;;1.83;;
14169;SDS011;63889;50.596;8.690;2023-10-09T01:00:25;3.55;;;1.80;;
14169;SDS011;63889;50.596;8.690;2023-10-09T01:03:03;4.40;;;2.10;;
14169;SDS011;63889;50.596;8.690;2023-10-09T01:05:45;1.85;;;1.20;;
14169;SDS011;63889;50.596;8.690;2023-10-09T01:08:23;4.38;;;1.83;;
14169;SDS011;63889;50.596;8.690;2023-10-09T01:11:10;2.75;;;1.50;;
14169;SDS011;63889;50.596;8.690;2023-10-09T01:13:43;9.18;;;1.77;;
14169;SDS011;63889;50.596;8.690;2023-10-09T01:16:23;3.13;;;1.60;;
14169;SDS011;63889;50.596;8.690;2023-10-09T01:18:50;2.17;;;1.20;;
14169;SDS011;63889;50.596;8.690;2023-10-09T01:21:22;2.20;;;1.60;;
14169;SDS011;63889;50.596;8.690;2023-10-09T01:23:51;1.77;;;1.40;;
14169;SDS011;63889;50.596;8.690;2023-10-09T01:26:30;1.73;;;1.50;;
14169;SDS011;63889;50.596;8.690;2023-10-09T01:29:10;5.22;;;1.38;;
14169;SDS011;63889;50.596;8.690;2023-10-09T01:31:40;2.47;;;1.35;;
14169;SDS011;63889;50.596;8.690;2023-10-09T01:34:16;4.22;;;1.30;;
14169;SDS011;63889;50.596;8.690;2023-10-09T01:36:42;6.53;;;1.60;;
14169;SDS011;63889;50.596;8.690;2023-10-09T01:39:08;3.58;;;1.60;;
14169;SDS011;63889;50.596;8.690;2023-10-09T01:41:46;3.83;;;2.33;;
14169;SDS011;63889;50.596;8.690;2023-10-09T01:44:13;2.83;;;2.00;;
14169;SDS011;63889;50.596;8.690;2023-10-09T01:46:41;2.22;;;1.80;;
14169;SDS011;63889;50.596;8.690;2023-10-09T01:49:07;3.00;;;1.77;;
14169;SDS011;63889;50.596;8.690;2023-10-09T01:51:41;6.20;;;1.60;;
14169;SDS011;63889;50.596;8.690;2023-10-09T01:54:07;5.38;;;1.85;;
14169;SDS011;63889;50.596;8.690;2023-10-09T01:56:32;4.13;;;1.40;;
14169;SDS011;63889;50.596;8.690;2023-10-09T01:59:02;3.20;;;1.60;;
14169;SDS011;63889;50.596;8.690;2023-10-09T02:01:30;3.25;;;1.55;;
14169;SDS011;63889;50.596;8.690;2023-10-09T02:03:57;3.15;;;1.67;;
14169;SDS011;63889;50.596;8.690;2023-10-09T02:06:30;2.58;;;1.70;;
14169;SDS011;63889;50.596;8.690;2023-10-09T02:08:57;3.42;;;2.15;;
14169;SDS011;63889;50.596;8.690;2023-10-09T02:11:24;7.47;;;3.08;;
14169;SDS011;63889;50.596;8.690;2023-10-09T02:14:02;4.15;;;1.92;;
14169;SDS011;63889;50.596;8.690;2023-10-09T02:16:30;3.67;;;1.80;;
14169;SDS011;63889;50.596;8.690;2023-10-09T02:19:06;5.05;;;1.90;;
14169;SDS011;63889;50.596;8.690;2023-10-09T02:21:45;3.28;;;2.00;;
14169;SDS011;63889;50.596;8.690;2023-10-09T02:24:11;3.72;;;1.65;;
14169;SDS011;63889;50.596;8.690;2023-10-09T02:26:51;3.72;;;1.83;;
14169;SDS011;63889;50.596;8.690;2023-10-09T02:29:17;2.40;;;1.77;;
14169;SDS011;63889;50.596;8.690;2023-10-09T02:31:42;3.10;;;1.80;;
14169;SDS011;63889;50.596;8.690;2023-10-09T02:34:09;2.65;;;1.40;;
14169;SDS011;63889;50.596;8.690;2023-10-09T02:36:38;2.40;;;1.38;;
14169;SDS011;63889;50.596;8.690;2023-10-09T02:39:06;6.65;;;1.70;;
14169;SDS011;63889;50.596;8.690;2023-10-09T02:41:37;2.92;;;1.80;;
14169;SDS011;63889;50.596;8.690;2023-10-09T02:44:14;2.00;;;1.48;;
14169;SDS011;63889;50.596;8.690;2023-10-09T02:46:40;1.60;;;1.50;;
14169;SDS011;63889;50.596;8.690;2023-10-09T02:49:09;2.30;;;1.40;;
14169;SDS011;63889;50.596;8.690;2023-10-09T02:51:40;3.25;;;1.27;;
14169;SDS011;63889;50.596;8.690;2023-10-09T02:54:09;5.57;;;1.65;;
14169;SDS011;63889;50.596;8.690;2023-10-09T03:00:14;3.55;;;1.48;;
14169;SDS011;63889;50.596;8.690;2023-10-09T03:02:44;5.85;;;1.70;;
14169;SDS011;63889;50.596;8.690;2023-10-09T03:05:11;2.20;;;1.73;;
14169;SDS011;63889;50.596;8.690;2023-10-09T03:07:37;5.60;;;1.55;;
14169;SDS011;63889;50.596;8.690;2023-10-09T03:10:05;3.13;;;1.88;;
14169;SDS011;63889;50.596;8.690;2023-10-09T03:12:34;3.50;;;1.63;;
14169;SDS011;63889;50.596;8.690;2023-10-09T03:15:00;4.40;;;1.67;;
14169;SDS011;63889;50.596;8.690;2023-10-09T03:17:27;3.15;;;1.65;;
14169;SDS011;63889;50.596;8.690;2023-10-09T03:19:52;4.75;;;1.92;;
14169;SDS011;63889;50.596;8.690;2023-10-09T03:22:18;3.40;;;1.50;;
14169;SDS011;63889;50.596;8.690;2023-10-09T03:24:44;4.50;;;1.20;;
14169;SDS011;63889;50.596;8.690;2023-10-09T03:27:10;3.97;;;1.65;;
14169;SDS011;63889;50.596;8.690;2023-10-09T03:29:36;2.47;;;1.90;;
14169;SDS011;63889;50.596;8.690;2023-10-09T03:32:02;1.98;;;1.15;;
14169;SDS011;63889;50.596;8.690;2023-10-09T03:34:28;4.70;;;1.70;;
14169;SDS011;63889;50.596;8.690;2023-10-09T03:36:56;2.17;;;1.30;;
14169;SDS011;63889;50.596;8.690;2023-10-09T03:39:31;3.67;;;1.35;;
14169;SDS011;63889;50.596;8.690;2023-10-09T03:42:06;4.53;;;1.50;;
14169;SDS011;63889;50.596;8.690;2023-10-09T03:44:37;2.47;;;1.42;;
14169;SDS011;63889;50.596;8.690;2023-10-09T03:47:06;5.88;;;2.80;;
14169;SDS011;63889;50.596;8.690;2023-10-09T03:49:35;2.42;;;1.38;;
14169;SDS011;63889;50.596;8.690;2023-10-09T03:52:04;4.22;;;1.40;;
14169;SDS011;63889;50.596;8.690;2023-10-09T03:54:31;1.48;;;1.10;;
14169;SDS011;63889;50.596;8.690;2023-10-09T03:57:00;3.20;;;1.50;;
14169;SDS011;63889;50.596;8.690;2023-10-09T03:59:25;6.72;;;1.67;;
14169;SDS011;63889;50.596;8.690;2023-10-09T04:01:55;2.60;;;1.38;;
14169;SDS011;63889;50.596;8.690;2023-10-09T04:04:23;3.90;;;1.70;;
14169;SDS011;63889;50.596;8.690;2023-10-09T04:06:49;4.53;;;1.60;;
14169;SDS011;63889;50.596;8.690;2023-10-09T04:09:16;7.50;;;1.88;;
14169;SDS011;63889;50.596;8.690;2023-10-09T04:11:45;8.55;;;2.25;;
14169;SDS011;63889;50.596;8.690;2023-10-09T04:14:14;8.80;;;2.13;;
14169;SDS011;63889;50.596;8.690;2023-10-09T04:16:56;7.13;;;2.35;;
14169;SDS011;63889;50.596;8.690;2023-10-09T04:19:34;3.83;;;1.90;;
14169;SDS011;63889;50.596;8.690;2023-10-09T04:22:19;7.32;;;1.77;;
14169;SDS011;63889;50.596;8.690;2023-10-09T04:24:52;6.45;;;2.50;;
14169;SDS011;63889;50.596;8.690;2023-10-09T04:27:18;3.20;;;2.13;;
14169;SDS011;63889;50.596;8.690;2023-10-09T04:29:51;6.68;;;2.22;;
14169;SDS011;63889;50.596;8.690;2023-10-09T04:32:19;7.85;;;1.98;;
14169;SDS011;63889;50.596;8.690;2023-10-09T04:34:45;4.30;;;1.95;;
14169;SDS011;63889;50.596;8.690;2023-10-09T04:37:13;4.80;;;2.00;;
14169;SDS011;63889;50.596;8.690;2023-10-09T04:39:40;5.43;;;2.10;;
14169;SDS011;63889;50.596;8.690;2023-10-09T04:42:12;6.63;;;2.15;;
14169;SDS011;63889;50.596;8.690;2023-10-09T04:45:05;5.18;;;1.92;;
14169;SDS011;63889;50.596;8.690;2023-10-09T04:47:32;6.60;;;2.28;;
14169;SDS011;63889;50.596;8.690;2023-10-09T04:50:03;8.50;;;2.28;;
14169;SDS011;63889;50.596;8.690;2023-10-09T04:52:37;6.47;;;2.25;;
14169;SDS011;63889;50.596;8.690;2023-10-09T04:55:03;6.68;;;2.17;;
14169;SDS011;63889;50.596;8.690;2023-10-09T04:57:32;3.97;;;1.83;;
14169;SDS011;63889;50.596;8.690;2023-10-09T05:00:14;4.43;;;1.80;;
14169;SDS011;63889;50.596;8.690;2023-10-09T05:02:50;2.95;;;1.70;;
14169;SDS011;63889;50.596;8.690;2023-10-09T05:05:20;6.55;;;1.67;;
14169;SDS011;63889;50.596;8.690;2023-10-09T05:08:14;6.18;;;2.05;;
14169;SDS011;63889;50.596;8.690;2023-10-09T05:10:54;6.70;;;1.80;;
14169;SDS011;63889;50.596;8.690;2023-10-09T05:13:23;3.92;;;1.95;;
14169;SDS011;63889;50.596;8.690;2023-10-09T05:18:51;7.93;;;2.30;;
14169;SDS011;63889;50.596;8.690;2023-10-09T05:21:24;9.10;;;2.30;;
14169;SDS011;63889;50.596;8.690;2023-10-09T05:24:12;4.07;;;2.22;;
14169;SDS011;63889;50.596;8.690;2023-10-09T05:26:38;4.35;;;1.85;;
14169;SDS011;63889;50.596;8.690;2023-10-09T05:29:14;7.35;;;2.03;;
14169;SDS011;63889;50.596;8.690;2023-10-09T05:31:59;7.63;;;2.10;;
14169;SDS011;63889;50.596;8.690;2023-10-09T05:34:40;6.15;;;1.98;;
14169;SDS011;63889;50.596;8.690;2023-10-09T05:37:25;3.58;;;2.10;;
14169;SDS011;63889;50.596;8.690;2023-10-09T05:40:02;5.10;;;2.53;;
14169;SDS011;63889;50.596;8.690;2023-10-09T05:42:41;5.22;;;2.53;;
14169;SDS011;63889;50.596;8.690;2023-10-09T05:45:07;9.30;;;2.42;;
14169;SDS011;63889;50.596;8.690;2023-10-09T05:47:49;8.60;;;2.08;;
14169;SDS011;63889;50.596;8.690;2023-10-09T05:50:25;5.07;;;2.10;;
14169;SDS011;63889;50.596;8.690;2023-10-09T05:52:52;4.28;;;1.83;;
14169;SDS011;63889;50.596;8.690;2023-10-09T05:55:20;6.03;;;1.90;;
14169;SDS011;63889;50.596;8.690;2023-10-09T05:58:04;6.75;;;2.20;;
14169;SDS011;63889;50.596;8.690;2023-10-09T06:00:49;4.00;;;2.03;;
14169;SDS011;63889;50.596;8.690;2023-10-09T06:03:34;4.18;;;2.13;;
14169;SDS011;63889;50.596;8.690;2023-10-09T06:06:19;4.30;;;2.55;;
14169;SDS011;63889;50.596;8.690;2023-10-09T06:09:06;5.53;;;3.42;;
14169;SDS011;63889;50.596;8.690;2023-10-09T06:11:34;14.43;;;3.95;;
14169;SDS011;63889;50.596;8.690;2023-10-09T06:14:03;13.15;;;4.20;;
14169;SDS011;63889;50.596;8.690;2023-10-09T06:16:29;12.57;;;6.40;;
14169;SDS011;63889;50.596;8.690;2023-10-09T06:19:18;8.90;;;4.25;;
14169;SDS011;63889;50.596;8.690;2023-10-09T06:21:44;9.70;;;4.07;;
14169;SDS011;63889;50.596;8.690;2023-10-09T06:24:28;7.13;;;4.57;;
14169;SDS011;63889;50.596;8.690;2023-10-09T06:27:07;10.50;;;4.18;;
14169;SDS011;63889;50.596;8.690;2023-10-09T06:29:37;12.48;;;4.93;;
14169;SDS011;63889;50.596;8.690;2023-10-09T06:32:11;8.30;;;3.80;;
14169;SDS011;63889;50.596;8.690;2023-10-09T06:34:43;8.93;;;4.00;;
14169;SDS011;63889;50.596;8.690;2023-10-09T06:37:17;11.57;;;4.70;;
14169;SDS011;63889;50.596;8.690;2023-10-09T06:42:20;12.07;;;4.97;;
14169;SDS011;63889;50.596;8.690;2023-10-09T06:45:04;10.70;;;5.25;;
14169;SDS011;63889;50.596;8.690;2023-10-09T06:47:41;10.02;;;4.80;;
14169;SDS011;63889;50.596;8.690;2023-10-09T06:50:29;8.75;;;4.40;;
14169;SDS011;63889;50.596;8.690;2023-10-09T06:53:13;11.02;;;4.93;;
14169;SDS011;63889;50.596;8.690;2023-10-09T06:55:38;11.75;;;4.72;;
14169;SDS011;63889;50.596;8.690;2023-10-09T06:58:14;15.32;;;5.30;;
14169;SDS011;63889;50.596;8.690;2023-10-09T07:00:51;8.48;;;4.43;;
14169;SDS011;63889;50.596;8.690;2023-10-09T07:03:23;10.75;;;5.15;;
14169;SDS011;63889;50.596;8.690;2023-10-09T07:08:52;10.73;;;4.55;;
14169;SDS011;63889;50.596;8.690;2023-10-09T07:11:40;9.95;;;4.45;;
14169;SDS011;63889;50.596;8.690;2023-10-09T07:14:17;9.63;;;5.15;;
14169;SDS011;63889;50.596;8.690;2023-10-09T07:16:56;10.45;;;5.18;;
14169;SDS011;63889;50.596;8.690;2023-10-09T07:19:40;9.40;;;5.63;;
14169;SDS011;63889;50.596;8.690;2023-10-09T07:22:07;10.93;;;5.07;;
14169;SDS011;63889;50.596;8.690;2023-10-09T07:24:55;10.05;;;5.80;;
14169;SDS011;63889;50.596;8.690;2023-10-09T07:27:22;9.93;;;4.97;;
14169;SDS011;63889;50.596;8.690;2023-10-09T07:30:07;12.75;;;5.50;;
14169;SDS011;63889;50.596;8.690;2023-10-09T07:32:59;12.65;;;5.45;;
14169;SDS011;63889;50.596;8.690;2023-10-09T07:40:45;11.68;;;5.32;;
14169;SDS011;63889;50.596;8.690;2023-10-09T07:43:28;15.30;;;6.30;;
14169;SDS011;63889;50.596;8.690;2023-10-09T07:46:01;12.13;;;6.63;;
14169;SDS011;63889;50.596;8.690;2023-10-09T07:48:46;15.40;;;5.57;;
14169;SDS011;63889;50.596;8.690;2023-10-09T07:51:17;13.90;;;6.63;;
14169;SDS011;63889;50.596;8.690;2023-10-09T07:53:55;16.52;;;6.25;;
14169;SDS011;63889;50.596;8.690;2023-10-09T07:56:25;15.00;;;5.97;;
14169;SDS011;63889;50.596;8.690;2023-10-09T07:58:55;14.70;;;5.93;;
14169;SDS011;63889;50.596;8.690;2023-10-09T08:01:25;14.88;;;7.43;;
14169;SDS011;63889;50.596;8.690;2023-10-09T08:03:54;16.23;;;6.93;;
14169;SDS011;63889;50.596;8.690;2023-10-09T08:06:25;14.20;;;7.10;;
14169;SDS011;63889;50.596;8.690;2023-10-09T08:09:03;13.18;;;6.78;;
14169;SDS011;63889;50.596;8.690;2023-10-09T08:14:08;14.10;;;7.03;;
14169;SDS011;63889;50.596;8.690;2023-10-09T08:16:47;11.87;;;6.43;;
14169;SDS011;63889;50.596;8.690;2023-10-09T08:19:12;13.75;;;6.28;;
14169;SDS011;63889;50.596;8.690;2023-10-09T08:21:57;11.55;;;6.07;;
14169;SDS011;63889;50.596;8.690;2023-10-09T08:24:40;12.02;;;6.57;;
14169;SDS011;63889;50.596;8.690;2023-10-09T08:27:07;13.75;;;6.40;;
14169;SDS011;63889;50.596;8.690;2023-10-09T08:29:52;11.40;;;5.82;;
14169;SDS011;63889;50.596;8.690;2023-10-09T08:32:37;18.45;;;6.95;;
14169;SDS011;63889;50.596;8.690;2023-10-09T08:35:04;11.55;;;6.07;;
14169;SDS011;63889;50.596;8.690;2023-10-09T08:37:44;13.57;;;6.13;;
14169;SDS011;63889;50.596;8.690;2023-10-09T08:40:13;18.75;;;6.18;;
14169;SDS011;63889;50.596;8.690;2023-10-09T08:42:38;14.68;;;5.88;;
14169;SDS011;63889;50.596;8.690;2023-10-09T08:45:04;15.27;;;6.88;;
14169;SDS011;63889;50.596;8.690;2023-10-09T08:47:31;10.98;;;5.20;;
14169;SDS011;63889;50.596;8.690;2023-10-09T08:49:58;11.77;;;5.45;;
14169;SDS011;63889;50.596;8.690;2023-10-09T08:52:24;11.63;;;5.65;;
14169;SDS011;63889;50.596;8.690;2023-10-09T08:54:50;14.07;;;5.35;;
14169;SDS011;63889;50.596;8.690;2023-10-09T08:57:15;9.55;;;4.90;;
14169;SDS011;63889;50.596;8.690;2023-10-09T08:59:43;7.25;;;4.60;;
14169;SDS011;63889;50.596;8.690;2023-10-09T09:02:09;11.32;;;5.57;;
14169;SDS011;63889;50.596;8.690;2023-10-09T09:04:39;9.98;;;4.63;;
14169;SDS011;63889;50.596;8.690;2023-10-09T09:07:27;6.30;;;4.07;;
14169;SDS011;63889;50.596;8.690;2023-10-09T09:09:54;11.15;;;5.07;;
14169;SDS011;63889;50.596;8.690;2023-10-09T09:12:22;17.33;;;6.35;;
14169;SDS011;63889;50.596;8.690;2023-10-09T09:14:48;12.50;;;5.30;;
14169;SDS011;63889;50.596;8.690;2023-10-09T09:17:22;14.35;;;6.55;;
14169;SDS011;63889;50.596;8.690;2023-10-09T09:19:55;14.70;;;5.95;;
14169;SDS011;63889;50.596;8.690;2023-10-09T09:22:22;10.00;;;4.95;;
14169;SDS011;63889;50.596;8.690;2023-10-09T09:24:58;12.82;;;5.18;;
14169;SDS011;63889;50.596;8.690;2023-10-09T09:27:43;8.15;;;4.88;;
14169;SDS011;63889;50.596;8.690;2023-10-09T09:30:27;9.95;;;4.78;;
14169;SDS011;63889;50.596;8.690;2023-10-09T09:33:16;15.38;;;5.18;;
14169;SDS011;63889;50.596;8.690;2023-10-09T09:35:55;14.07;;;6.75;;
14169;SDS011;63889;50.596;8.690;2023-10-09T09:38:25;16.38;;;6.70;;
14169;SDS011;63889;50.596;8.690;2023-10-09T09:40:54;11.45;;;5.97;;
14169;SDS011;63889;50.596;8.690;2023-10-09T09:43:22;10.48;;;4.80;;
14169;SDS011;63889;50.596;8.690;2023-10-09T09:45:48;10.35;;;4.82;;
14169;SDS011;63889;50.596;8.690;2023-10-09T09:48:18;10.00;;;4.05;;
14169;SDS011;63889;50.596;8.690;2023-10-09T09:50:44;14.88;;;4.85;;
14169;SDS011;63889;50.596;8.690;2023-10-09T09:53:15;18.80;;;4.85;;
14169;SDS011;63889;50.596;8.690;2023-10-09T09:55:54;8.98;;;4.70;;
14169;SDS011;63889;50.596;8.690;2023-10-09T09:58:23;10.02;;;4.95;;
14169;SDS011;63889;50.596;8.690;2023-10-09T10:00:52;16.52;;;5.18;;
14169;SDS011;63889;50.596;8.690;2023-10-09T10:05:50;16.83;;;6.15;;
14169;SDS011;63889;50.596;8.690;2023-10-09T10:08:18;12.23;;;5.47;;
14169;SDS011;63889;50.596;8.690;2023-10-09T10:10:45;14.05;;;6.05;;
14169;SDS011;63889;50.596;8.690;2023-10-09T10:13:17;16.25;;;6.13;;
14169;SDS011;63889;50.596;8.690;2023-10-09T10:16:10;11.85;;;6.05;;
14169;SDS011;63889;50.596;8.690;2023-10-09T10:21:46;14.20;;;5.50;;
14169;SDS011;63889;50.596;8.690;2023-10-09T10:27:16;18.00;;;6.22;;
14169;SDS011;63889;50.596;8.690;2023-10-09T10:35:41;12.98;;;4.90;;
14169;SDS011;63889;50.596;8.690;2023-10-09T10:38:25;12.88;;;5.78;;
14169;SDS011;63889;50.596;8.690;2023-10-09T10:41:14;11.48;;;5.63;;
14169;SDS011;63889;50.596;8.690;2023-10-09T10:43:44;17.85;;;6.10;;
14169;SDS011;63889;50.596;8.690;2023-10-09T10:46:14;12.65;;;5.18;;
14169;SDS011;63889;50.596;8.690;2023-10-09T10:48:51;15.85;;;4.95;;
14169;SDS011;63889;50.596;8.690;2023-10-09T10:51:27;9.07;;;4.65;;
14169;SDS011;63889;50.596;8.690;2023-10-09T10:54:03;13.85;;;4.78;;
14169;SDS011;63889;50.596;8.690;2023-10-09T10:56:48;12.43;;;5.28;;
14169;SDS011;63889;50.596;8.690;2023-10-09T10:59:14;10.93;;;4.32;;
14169;SDS011;63889;50.596;8.690;2023-10-09T11:01:47;15.20;;;4.40;;
14169;SDS011;63889;50.596;8.690;2023-10-09T11:04:39;13.60;;;4.37;;
14169;SDS011;63889;50.596;8.690;2023-10-09T11:07:09;9.57;;;4.40;;
14169;SDS011;63889;50.596;8.690;2023-10-09T11:15:35;10.93;;;4.85;;
14169;SDS011;63889;50.596;8.690;2023-10-09T11:18:14;11.75;;;5.35;;
14169;SDS011;63889;50.596;8.690;2023-10-09T11:20:53;12.88;;;4.22;;
14169;SDS011;63889;50.596;8.690;2023-10-09T11:23:23;13.80;;;5.05;;
14169;SDS011;63889;50.596;8.690;2023-10-09T11:26:00;11.18;;;5.25;;
14169;SDS011;63889;50.596;8.690;2023-10-09T11:28:45;13.95;;;6.32;;
14169;SDS011;63889;50.596;8.690;2023-10-09T11:31:22;13.77;;;5.55;;
14169;SDS011;63889;50.596;8.690;2023-10-09T11:33:51;15.63;;;5.57;;
14169;SDS011;63889;50.596;8.690;2023-10-09T11:36:18;10.45;;;5.40;;
14169;SDS011;63889;50.596;8.690;2023-10-09T11:38:54;11.93;;;5.20;;
14169;SDS011;63889;50.596;8.690;2023-10-09T11:41:39;16.08;;;5.63;;
14169;SDS011;63889;50.596;8.690;2023-10-09T11:44:09;14.20;;;4.70;;
14169;SDS011;63889;50.596;8.690;2023-10-09T11:46:58;13.68;;;4.88;;
14169;SDS011;63889;50.596;8.690;2023-10-09T11:52:22;16.30;;;5.30;;
14169;SDS011;63889;50.596;8.690;2023-10-09T11:55:01;8.90;;;4.68;;
14169;SDS011;63889;50.596;8.690;2023-10-09T11:57:39;12.98;;;5.32;;
14169;SDS011;63889;50.596;8.690;2023-10-09T12:00:05;16.02;;;5.85;;
14169;SDS011;63889;50.596;8.690;2023-10-09T12:02:51;8.80;;;4.00;;
14169;SDS011;63889;50.596;8.690;2023-10-09T12:05:17;9.98;;;4.72;;
14169;SDS011;63889;50.596;8.690;2023-10-09T12:07:44;9.23;;;4.07;;
14169;SDS011;63889;50.596;8.690;2023-10-09T12:10:10;11.27;;;4.88;;
14169;SDS011;63889;50.596;8.690;2023-10-09T12:12:38;10.07;;;4.38;;
14169;SDS011;63889;50.596;8.690;2023-10-09T12:15:11;17.98;;;5.20;;
14169;SDS011;63889;50.596;8.690;2023-10-09T12:17:42;6.82;;;3.38;;
14169;SDS011;63889;50.596;8.690;2023-10-09T12:20:15;12.00;;;4.72;;
14169;SDS011;63889;50.596;8.690;2023-10-09T12:23:00;8.32;;;3.40;;
14169;SDS011;63889;50.596;8.690;2023-10-09T12:25:31;17.63;;;3.97;;
14169;SDS011;63889;50.596;8.690;2023-10-09T12:27:59;10.35;;;4.22;;
14169;SDS011;63889;50.596;8.690;2023-10-09T12:30:26;6.10;;;3.10;;
14169;SDS011;63889;50.596;8.690;2023-10-09T12:32:56;9.05;;;3.83;;
14169;SDS011;63889;50.596;8.690;2023-10-09T12:35:25;7.93;;;3.70;;
14169;SDS011;63889;50.596;8.690;2023-10-09T12:37:52;9.48;;;3.50;;
14169;SDS011;63889;50.596;8.690;2023-10-09T12:40:21;10.43;;;4.03;;
14169;SDS011;63889;50.596;8.690;2023-10-09T12:42:54;11.25;;;3.97;;
14169;SDS011;63889;50.596;8.690;2023-10-09T12:45:23;6.72;;;3.28;;
14169;SDS011;63889;50.596;8.690;2023-10-09T12:47:58;9.80;;;3.85;;
14169;SDS011;63889;50.596;8.690;2023-10-09T12:50:27;13.05;;;4.75;;
14169;SDS011;63889;50.596;8.690;2023-10-09T12:52:57;7.15;;;3.67;;
14169;SDS011;63889;50.596;8.690;2023-10-09T12:55:35;7.55;;;3.85;;
14169;SDS011;63889;50.596;8.690;2023-10-09T12:58:10;9.02;;;3.50;;
14169;SDS011;63889;50.596;8.690;2023-10-09T13:00:40;7.60;;;3.60;;
14169;SDS011;63889;50.596;8.690;2023-10-09T13:03:13;9.00;;;3.78;;
14169;SDS011;63889;50.596;8.690;2023-10-09T13:05:50;8.13;;;3.67;;
14169;SDS011;63889;50.596;8.690;2023-10-09T13:08:23;5.32;;;3.00;;
14169;SDS011;63889;50.596;8.690;2023-10-09T13:11:05;7.30;;;3.67;;
14169;SDS011;63889;50.596;8.690;2023-10-09T13:13:35;7.53;;;3.38;;
14169;SDS011;63889;50.596;8.690;2023-10-09T13:16:06;14.80;;;3.65;;
14169;SDS011;63889;50.596;8.690;2023-10-09T13:18:50;12.80;;;3.97;;
14169;SDS011;63889;50.596;8.690;2023-10-09T13:21:20;11.00;;;3.67;;
14169;SDS011;63889;50.596;8.690;2023-10-09T13:23:51;7.80;;;3.55;;
14169;SDS011;63889;50.596;8.690;2023-10-09T13:26:17;8.95;;;3.17;;
14169;SDS011;63889;50.596;8.690;2023-10-09T13:28:44;10.27;;;3.20;;
14169;SDS011;63889;50.596;8.690;2023-10-09T13:31:11;8.93;;;3.42;;
14169;SDS011;63889;50.596;8.690;2023-10-09T13:33:41;8.55;;;3.95;;
14169;SDS011;63889;50.596;8.690;2023-10-09T13:36:07;10.88;;;3.35;;
14169;SDS011;63889;50.596;8.690;2023-10-09T13:38:44;9.80;;;3.70;;
14169;SDS011;63889;50.596;8.690;2023-10-09T13:41:10;9.25;;;3.63;;
14169;SDS011;63889;50.596;8.690;2023-10-09T13:43:40;9.50;;;3.28;;
14169;SDS011;63889;50.596;8.690;2023-10-09T13:46:07;11.70;;;3.75;;
14169;SDS011;63889;50.596;8.690;2023-10-09T13:48:34;7.82;;;3.63;;
14169;SDS011;63889;50.596;8.690;2023-10-09T13:51:04;9.30;;;3.40;;
14169;SDS011;63889;50.596;8.690;2023-10-09T13:53:33;10.02;;;3.53;;
14169;SDS011;63889;50.596;8.690;2023-10-09T13:56:10;9.48;;;3.08;;
14169;SDS011;63889;50.596;8.690;2023-10-09T13:58:39;10.23;;;3.72;;
14169;SDS011;63889;50.596;8.690;2023-10-09T14:01:08;9.05;;;3.95;;
14169;SDS011;63889;50.596;8.690;2023-10-09T14:03:34;11.63;;;3.60;;
14169;SDS011;63889;50.596;8.690;2023-10-09T14:06:00;9.32;;;3.88;;
14169;SDS011;63889;50.596;8.690;2023-10-09T14:08:35;8.90;;;3.33;;
14169;SDS011;63889;50.596;8.690;2023-10-09T14:11:07;11.48;;;3.80;;
14169;SDS011;63889;50.596;8.690;2023-10-09T14:13:38;7.55;;;3.47;;
14169;SDS011;63889;50.596;8.690;2023-10-09T14:16:05;7.80;;;3.67;;
14169;SDS011;63889;50.596;8.690;2023-10-09T14:18:31;12.07;;;3.28;;
14169;SDS011;63889;50.596;8.690;2023-10-09T14:21:00;10.15;;;3.65;;
14169;SDS011;63889;50.596;8.690;2023-10-09T14:23:29;7.10;;;3.95;;
14169;SDS011;63889;50.596;8.690;2023-10-09T14:25:59;8.05;;;3.67;;
14169;SDS011;63889;50.596;8.690;2023-10-09T14:28:26;7.40;;;3.88;;
14169;SDS011;63889;50.596;8.690;2023-10-09T14:30:54;5.70;;;3.17;;
14169;SDS011;63889;50.596;8.690;2023-10-09T14:33:24;9.60;;;3.80;;
14169;SDS011;63889;50.596;8.690;2023-10-09T14:35:52;8.63;;;3.63;;
14169;SDS011;63889;50.596;8.690;2023-10-09T14:38:20;11.15;;;4.00;;
14169;SDS011;63889;50.596;8.690;2023-10-09T14:40:52;7.65;;;3.67;;
14169;SDS011;63889;50.596;8.690;2023-10-09T14:43:22;8.77;;;3.87;;
14169;SDS011;63889;50.596;8.690;2023-10-09T14:45:53;13.87;;;4.13;;
14169;SDS011;63889;50.596;8.690;2023-10-09T14:48:19;9.68;;;3.55;;
14169;SDS011;63889;50.596;8.690;2023-10-09T14:50:54;9.52;;;3.97;;
14169;SDS011;63889;50.596;8.690;2023-10-09T14:53:23;15.32;;;4.07;;
14169;SDS011;63889;50.596;8.690;2023-10-09T14:55:55;8.15;;;3.42;;
14169;SDS011;63889;50.596;8.690;2023-10-09T14:58:28;8.43;;;4.18;;
14169;SDS011;63889;50.596;8.690;2023-10-09T15:00:55;9.93;;;3.83;;
14169;SDS011;63889;50.596;8.690;2023-10-09T15:03:21;7.65;;;3.70;;
14169;SDS011;63889;50.596;8.690;2023-10-09T15:05:47;10.32;;;3.88;;
14169;SDS011;63889;50.596;8.690;2023-10-09T15:08:13;6.13;;;3.53;;
14169;SDS011;63889;50.596;8.690;2023-10-09T15:10:52;8.82;;;3.45;;
14169;SDS011;63889;50.596;8.690;2023-10-09T15:13:21;7.63;;;3.50;;
14169;SDS011;63889;50.596;8.690;2023-10-09T15:15:53;19.90;;;4.03;;
14169;SDS011;63889;50.596;8.690;2023-10-09T15:18:20;10.57;;;3.67;;
14169;SDS011;63889;50.596;8.690;2023-10-09T15:20:46;8.70;;;3.35;;
14169;SDS011;63889;50.596;8.690;2023-10-09T15:23:12;11.48;;;4.43;;
14169;SDS011;63889;50.596;8.690;2023-10-09T15:25:38;7.88;;;3.90;;
14169;SDS011;63889;50.596;8.690;2023-10-09T15:28:04;9.73;;;4.03;;
14169;SDS011;63889;50.596;8.690;2023-10-09T15:30:32;9.32;;;4.18;;
14169;SDS011;63889;50.596;8.690;2023-10-09T15:32:58;10.82;;;4.05;;
14169;SDS011;63889;50.596;8.690;2023-10-09T15:35:24;11.63;;;4.07;;
14169;SDS011;63889;50.596;8.690;2023-10-09T15:37:53;5.93;;;3.67;;
14169;SDS011;63889;50.596;8.690;2023-10-09T15:40:19;9.30;;;4.00;;
14169;SDS011;63889;50.596;8.690;2023-10-09T15:42:49;13.93;;;4.22;;
14169;SDS011;63889;50.596;8.690;2023-10-09T15:45:18;16.13;;;4.35;;
14169;SDS011;63889;50.596;8.690;2023-10-09T15:47:46;7.75;;;4.10;;
14169;SDS011;63889;50.596;8.690;2023-10-09T15:50:12;10.18;;;4.00;;
14169;SDS011;63889;50.596;8.690;2023-10-09T15:52:39;6.55;;;3.50;;
14169;SDS011;63889;50.596;8.690;2023-10-09T15:55:08;7.63;;;3.67;;
14169;SDS011;63889;50.596;8.690;2023-10-09T15:57:38;12.75;;;4.63;;
14169;SDS011;63889;50.596;8.690;2023-10-09T16:00:05;12.80;;;4.28;;